createdAt,value
2023-03-24T00:04:42.833Z,75.90
2023-03-24T00:09:45.643Z,75.70
2023-03-24T00:14:47.810Z,75.60
2023-03-24T00:19:50.444Z,75.50
2023-03-24T00:24:52.556Z,75.50
2023-03-24T00:29:54.938Z,75.60
2023-03-24T00:34:57.136Z,75.60
2023-03-24T00:39:59.750Z,75.80
2023-03-24T00:45:04.126Z,75.80
2023-03-24T00:50:08.050Z,75.70
2023-03-24T00:55:14.189Z,76.30
2023-03-24T01:00:19.049Z,75.90
2023-03-24T01:05:21.883Z,76.10
2023-03-24T01:10:26.597Z,76.10
2023-03-24T01:15:31.266Z,75.90
2023-03-24T01:20:33.618Z,75.80
2023-03-24T01:25:37.892Z,75.90
2023-03-24T01:30:41.668Z,75.50
2023-03-24T01:35:44.016Z,75.30
2023-03-24T01:40:47.378Z,75.20
2023-03-24T01:56:29.150Z,75.40
2023-03-24T02:01:32.279Z,74.90
2023-03-24T02:06:49.119Z,74.50
2023-03-24T02:11:51.343Z,74.80
2023-03-24T02:22:24.364Z,74.60
2023-03-24T02:27:47.418Z,74.40
2023-03-24T02:33:09.463Z,74.60
2023-03-24T02:43:57.233Z,74.80
2023-03-24T02:54:13.393Z,74.90
2023-03-24T02:59:18.569Z,74.60
2023-03-24T03:04:41.294Z,74.10
2023-03-24T03:09:47.788Z,74.40
2023-03-24T03:14:52.660Z,74.80
2023-03-24T03:19:56.359Z,75.00
2023-03-24T03:25:01.392Z,75.30
2023-03-24T03:30:06.688Z,75.30
2023-03-24T03:35:12.186Z,75.40
2023-03-24T03:40:18.099Z,75.40
2023-03-24T03:45:24.255Z,75.40
2023-03-24T03:50:26.714Z,75.20
2023-03-24T03:55:31.058Z,75.20
2023-03-24T04:00:34.395Z,75.00
2023-03-24T04:06:02.161Z,75.00
2023-03-24T04:11:24.642Z,75.00
2023-03-24T04:27:46.646Z,75.10
2023-03-24T04:32:54.037Z,74.90
2023-03-24T04:38:05.437Z,75.10
2023-03-24T04:43:13.959Z,75.30
2023-03-24T04:48:17.615Z,75.40
2023-03-24T04:53:35.174Z,75.60
2023-03-24T04:58:37.314Z,75.90
2023-03-24T05:03:39.874Z,75.70
2023-03-24T05:08:42.720Z,75.60
2023-03-24T05:13:44.960Z,75.90
2023-03-24T05:18:47.547Z,76.00
2023-03-24T05:23:49.846Z,76.10
2023-03-24T05:28:52.919Z,76.30
2023-03-24T05:33:55.976Z,76.10
2023-03-24T05:39:00.662Z,76.40
2023-03-24T05:44:14.187Z,76.60
2023-03-24T05:49:18.048Z,76.60
2023-03-24T05:54:20.168Z,76.60
2023-03-24T05:59:24.470Z,76.40
2023-03-24T06:04:36.977Z,75.90
2023-03-24T06:09:47.248Z,76.30
2023-03-24T06:14:50.769Z,75.80
2023-03-24T06:19:54.664Z,76.60
2023-03-24T06:25:18.056Z,76.80
2023-03-24T06:30:30.647Z,74.40
2023-03-24T06:35:32.969Z,77.70
2023-03-24T06:40:40.344Z,76.40
2023-03-24T06:45:45.422Z,77.70
2023-03-24T06:50:54.984Z,76.60
2023-03-24T06:55:57.919Z,77.10
2023-03-24T07:01:03.386Z,77.00
2023-03-24T07:06:11.568Z,76.80
2023-03-24T07:11:14.770Z,75.60
2023-03-24T07:16:25.120Z,74.40
2023-03-24T07:21:37.190Z,71.80
2023-03-24T07:26:39.780Z,68.70
2023-03-24T07:45:34.499Z,66.40
2023-03-24T07:50:38.045Z,60.90
2023-03-24T07:55:53.395Z,59.70
2023-03-24T08:00:59.021Z,55.30
2023-03-24T08:06:12.198Z,60.80
2023-03-24T08:11:18.739Z,59.70
2023-03-24T08:16:21.527Z,61.90
2023-03-24T08:21:24.343Z,60.80
2023-03-24T08:26:26.948Z,59.70
2023-03-24T08:31:35.314Z,58.90
2023-03-24T08:36:37.853Z,60.60
2023-03-24T08:41:40.132Z,59.60
2023-03-24T08:46:43.125Z,62.20
2023-03-24T08:51:46.353Z,62.40
2023-03-24T08:56:48.686Z,60.10
2023-03-24T09:01:50.957Z,62.50
2023-03-24T09:07:01.675Z,62.10
2023-03-24T09:12:05.681Z,62.90
2023-03-24T09:17:08.308Z,60.90
2023-03-24T09:22:11.864Z,59.10
2023-03-24T09:27:14.079Z,59.20
2023-03-24T09:32:16.337Z,60.30
2023-03-24T09:37:18.731Z,61.00
2023-03-24T09:42:24.828Z,61.00
2023-03-24T09:52:48.889Z,61.50
2023-03-24T09:57:53.004Z,61.50
2023-03-24T10:03:02.074Z,64.20
2023-03-24T10:08:21.986Z,62.20
2023-03-24T10:18:58.956Z,62.30
2023-03-24T10:34:31.469Z,62.60
2023-03-24T10:39:43.949Z,64.60
2023-03-24T10:44:50.283Z,64.80
2023-03-24T10:50:00.794Z,65.00
2023-03-24T10:55:19.452Z,64.90
2023-03-24T11:00:29.709Z,64.70
2023-03-24T11:05:35.451Z,65.80
2023-03-24T11:10:37.979Z,67.90
2023-03-24T11:15:56.238Z,69.30
2023-03-24T11:21:04.069Z,68.00
2023-03-24T11:42:13.024Z,67.40
2023-03-24T11:52:33.694Z,68.50
2023-03-24T11:57:50.547Z,69.10
2023-03-24T12:23:59.273Z,68.80
2023-03-24T12:45:26.420Z,67.80
2023-03-24T12:50:58.585Z,65.70
2023-03-24T12:56:09.548Z,65.90
2023-03-24T13:06:36.510Z,65.50
2023-03-24T13:11:51.379Z,65.60
2023-03-24T13:17:01.974Z,65.80
2023-03-24T13:22:06.881Z,65.40
2023-03-24T13:27:21.804Z,66.50
2023-03-24T13:32:32.145Z,66.50
2023-03-24T13:37:39.681Z,66.50
2023-03-24T13:42:47.746Z,65.90
2023-03-24T13:48:02.564Z,66.20
2023-03-24T13:53:13.138Z,66.80
2023-03-24T13:58:21.877Z,66.50
2023-03-24T14:03:43.414Z,67.70
2023-03-24T14:19:26.723Z,68.70
2023-03-24T14:24:31.417Z,69.40
2023-03-24T14:29:51.592Z,70.10
2023-03-24T14:34:57.966Z,70.70
2023-03-24T14:40:01.072Z,71.80
2023-03-24T14:45:07.202Z,70.50
2023-03-24T14:50:22.768Z,70.50
2023-03-24T14:55:27.394Z,71.20
2023-03-24T15:00:42.244Z,72.60
2023-03-24T15:05:46.428Z,71.50
2023-03-24T15:11:04.262Z,72.80
2023-03-24T15:26:38.722Z,72.20
2023-03-24T15:31:41.138Z,72.80
2023-03-24T15:36:45.003Z,72.10
2023-03-24T15:41:52.102Z,72.60
2023-03-24T15:46:57.850Z,72.90
2023-03-24T16:07:35.744Z,71.20
2023-03-24T16:12:38.194Z,72.30
2023-03-24T16:17:40.940Z,71.70
2023-03-24T16:22:43.213Z,71.40
2023-03-24T16:27:45.429Z,71.40
2023-03-24T16:32:48.113Z,72.00
2023-03-24T16:37:50.619Z,71.20
2023-03-24T16:42:53.817Z,70.80
2023-03-24T16:47:56.184Z,70.30
2023-03-24T16:52:58.663Z,70.20
2023-03-24T16:58:01.193Z,70.80
2023-03-24T17:03:04.542Z,70.70
2023-03-24T17:08:07.157Z,70.60
2023-03-24T17:18:26.285Z,69.80
2023-03-24T17:23:30.578Z,70.10
2023-03-24T17:28:32.790Z,69.90
2023-03-24T17:33:36.599Z,70.10
2023-03-24T17:38:40.180Z,70.00
2023-03-24T17:43:42.656Z,69.90
2023-03-24T17:48:46.257Z,69.90
2023-03-24T17:53:49.476Z,69.70
2023-03-24T17:58:55.034Z,69.40
2023-03-24T18:03:58.362Z,69.30
2023-03-24T18:09:00.825Z,69.00
2023-03-24T18:14:03.153Z,69.20
2023-03-24T18:19:05.685Z,69.50
2023-03-24T18:24:08.935Z,68.60
2023-03-24T18:29:11.437Z,68.80
2023-03-24T18:34:14.321Z,69.00
2023-03-24T18:39:17.051Z,69.00
2023-03-24T18:44:19.645Z,69.00
2023-03-24T18:49:21.963Z,68.60
2023-03-24T18:54:24.268Z,68.80
2023-03-24T18:59:28.449Z,68.90
2023-03-24T19:04:31.057Z,68.90
2023-03-24T19:09:33.282Z,68.90
2023-03-24T19:14:35.552Z,68.50
2023-03-24T19:19:38.265Z,68.60
2023-03-24T19:24:40.480Z,68.40
2023-03-24T19:29:42.713Z,68.40
2023-03-24T19:34:47.091Z,68.40
2023-03-24T19:39:49.290Z,68.40
2023-03-24T19:44:52.135Z,68.30
2023-03-24T19:49:56.866Z,68.10
2023-03-24T19:54:59.214Z,68.20
2023-03-24T20:00:01.971Z,68.10
2023-03-24T20:05:16.011Z,68.20
2023-03-24T20:10:21.114Z,68.10
2023-03-24T20:15:23.417Z,68.20
2023-03-24T20:20:25.703Z,68.10
2023-03-24T20:25:28.805Z,67.90
2023-03-24T20:30:32.691Z,68.00
2023-03-24T20:35:36.512Z,67.90
2023-03-24T20:40:38.972Z,67.80
2023-03-24T20:45:41.398Z,67.70
2023-03-24T20:50:43.932Z,67.70
2023-03-24T20:55:57.202Z,67.40
2023-03-24T21:00:59.700Z,67.70
2023-03-24T21:06:02.390Z,67.60
2023-03-24T21:11:04.715Z,67.50
2023-03-24T21:16:09.169Z,67.50
2023-03-24T21:21:12.834Z,67.50
2023-03-24T21:26:18.009Z,67.50
2023-03-24T21:31:25.138Z,67.50
2023-03-24T21:36:30.046Z,67.50
2023-03-24T21:41:32.548Z,67.50
2023-03-24T21:46:35.429Z,67.50
2023-03-24T21:51:37.682Z,67.50
2023-03-24T21:56:39.903Z,67.80
2023-03-24T22:01:42.265Z,67.80
2023-03-24T22:06:44.624Z,67.90
2023-03-24T22:11:46.988Z,67.70
2023-03-24T22:16:49.226Z,68.00
2023-03-24T22:21:57.207Z,68.10
2023-03-24T22:26:59.463Z,68.30
2023-03-24T22:32:02.104Z,68.30
2023-03-24T22:37:04.958Z,68.30
2023-03-24T22:42:07.461Z,68.40
2023-03-24T22:47:10.001Z,68.40
2023-03-24T22:52:12.261Z,68.50
2023-03-24T22:57:14.529Z,68.40
2023-03-24T23:02:17.801Z,68.40
2023-03-24T23:07:22.172Z,68.10
2023-03-24T23:12:25.082Z,68.20
2023-03-24T23:17:27.317Z,68.30
2023-03-24T23:22:29.596Z,68.20
2023-03-24T23:27:35.131Z,68.40
2023-03-24T23:32:38.849Z,68.50
2023-03-24T23:37:41.950Z,68.90
2023-03-24T23:42:46.693Z,68.40
2023-03-24T23:47:51.293Z,68.30
2023-03-24T23:52:53.556Z,68.30
2023-03-24T23:57:55.958Z,68.40
